Time;durP1;ratioP1;P1;durP2;ratioP2;P2;SDS_P1;SDS_P2;PMS_P1;PMS_P2;Temp;Humidity;BMP_temperature;BMP_pressure;BME280_temperature;BME280_humidity;BME280_pressure;Samples;Min_cycle;Max_cycle;Signal;HPM_P1;HPM_P2
2023/06/18 00:01:02;;;;;;;30.35;23.25;;;16.10;99.90;;;;;;5117017;28;20514;-60
2023/06/18 00:03:28;;;;;;;28.50;22.50;;;16.10;99.90;;;;;;5119262;28;20596;-60
2023/06/18 00:05:54;;;;;;;32.45;24.48;;;16.20;99.90;;;;;;5119007;28;20075;-61
2023/06/18 00:08:23;;;;;;;30.90;23.08;;;16.20;99.90;;;;;;5118751;28;20040;-60
2023/06/18 00:10:49;;;;;;;28.83;22.85;;;16.20;99.90;;;;;;5118556;28;20043;-60
2023/06/18 00:13:16;;;;;;;29.73;23.25;;;16.10;99.90;;;;;;5118562;28;20047;-60
2023/06/18 00:15:42;;;;;;;28.75;24.15;;;16.10;99.90;;;;;;5118530;28;20039;-60
2023/06/18 00:18:07;;;;;;;27.75;22.00;;;16.00;99.90;;;;;;5118578;28;20438;-60
2023/06/18 00:20:33;;;;;;;28.75;22.50;;;16.10;99.90;;;;;;5100545;28;20118;-59
2023/06/18 00:23:00;;;;;;;30.17;23.33;;;16.00;99.90;;;;;;5117904;28;20063;-60
2023/06/18 00:25:26;;;;;;;30.08;23.38;;;16.00;99.90;;;;;;5118479;28;20069;-60
2023/06/18 00:27:52;;;;;;;30.15;23.15;;;16.00;99.90;;;;;;5118444;28;20036;-59
2023/06/18 00:30:17;;;;;;;28.77;22.88;;;16.00;99.90;;;;;;5118337;28;20042;-60
2023/06/18 00:32:48;;;;;;;30.73;22.67;;;16.00;99.90;;;;;;5118124;28;20128;-60
2023/06/18 00:35:17;;;;;;;29.95;23.58;;;15.90;99.90;;;;;;5118019;28;20059;-60
2023/06/18 00:37:43;;;;;;;27.88;22.77;;;16.00;99.90;;;;;;5118835;28;20039;-60
2023/06/18 00:40:12;;;;;;;29.52;23.02;;;15.90;99.90;;;;;;5117374;28;20119;-59
2023/06/18 00:42:41;;;;;;;28.15;22.17;;;16.00;99.90;;;;;;5118105;28;20036;-59
2023/06/18 00:45:12;;;;;;;29.73;22.27;;;16.00;99.90;;;;;;5115424;28;20036;-60
2023/06/18 00:47:44;;;;;;;29.63;21.25;;;15.90;99.90;;;;;;5118416;28;20051;-60
2023/06/18 00:50:12;;;;;;;;;;;15.90;99.90;;;;;;5118939;28;20046;-60
2023/06/18 00:52:44;;;;;;;27.35;21.23;;;15.90;99.90;;;;;;5118038;28;19923;-60
2023/06/18 00:55:16;;;;;;;;;;;15.90;99.90;;;;;;5118801;28;20519;-60
2023/06/18 00:57:49;;;;;;;27.65;21.67;;;15.80;99.90;;;;;;5118296;28;19923;-60
2023/06/18 01:00:16;;;;;;;27.67;22.13;;;15.90;99.90;;;;;;5117965;28;20061;-60
2023/06/18 01:02:45;;;;;;;27.27;21.60;;;15.80;99.90;;;;;;5116471;28;20546;-60
2023/06/18 01:05:13;;;;;;;27.40;21.48;;;15.80;99.90;;;;;;5113808;28;20050;-60
2023/06/18 01:07:43;;;;;;;27.85;22.20;;;15.70;99.90;;;;;;5105642;28;20099;-59
2023/06/18 01:10:11;;;;;;;30.42;21.85;;;15.80;99.90;;;;;;5112792;28;20040;-59
2023/06/18 01:12:36;;;;;;;28.35;21.13;;;15.80;99.90;;;;;;5098760;28;20504;-60
2023/06/18 01:15:02;;;;;;;27.27;20.65;;;15.80;99.90;;;;;;5101157;28;20040;-60
2023/06/18 01:17:33;;;;;;;27.65;21.45;;;15.80;99.90;;;;;;5101610;28;20054;-60
2023/06/18 01:20:10;;;;;;;28.20;21.60;;;15.80;99.90;;;;;;5101421;28;20032;-60
2023/06/18 01:22:48;;;;;;;27.88;20.55;;;15.70;99.90;;;;;;5101159;28;20086;-60
2023/06/18 01:25:16;;;;;;;26.27;20.15;;;15.80;99.90;;;;;;5101149;28;20500;-61
2023/06/18 01:27:43;;;;;;;24.50;19.73;;;15.70;99.90;;;;;;5101460;28;20051;-62
2023/06/18 01:30:11;;;;;;;27.50;21.17;;;15.70;99.90;;;;;;5101320;28;20048;-60
2023/06/18 01:32:38;;;;;;;28.90;21.88;;;15.60;99.90;;;;;;5101041;28;20052;-60
2023/06/18 01:35:08;;;;;;;28.02;21.80;;;15.60;99.90;;;;;;5101463;28;20594;-60
2023/06/18 01:37:58;;;;;;;25.80;21.58;;;15.60;99.90;;;;;;5101807;28;20482;-60
2023/06/18 01:40:24;;;;;;;26.42;21.05;;;15.60;99.90;;;;;;5101133;28;20073;-59
2023/06/18 01:42:59;;;;;;;28.00;20.52;;;15.60;99.90;;;;;;5100911;28;20672;-58
2023/06/18 01:45:34;;;;;;;27.65;21.48;;;15.70;99.90;;;;;;5100941;28;20047;-59
2023/06/18 01:48:05;;;;;;;26.42;20.27;;;15.60;99.90;;;;;;5100938;28;20072;-60
2023/06/18 01:50:34;;;;;;;28.02;20.45;;;15.60;99.90;;;;;;5101417;28;20056;-58
2023/06/18 01:53:02;;;;;;;30.05;21.80;;;15.60;99.90;;;;;;5100774;28;20051;-58
2023/06/18 01:55:28;;;;;;;27.45;21.85;;;15.60;99.90;;;;;;5100969;28;20048;-57
2023/06/18 01:57:57;;;;;;;27.88;22.10;;;15.50;99.90;;;;;;5100794;28;20044;-58
2023/06/18 02:00:23;;;;;;;26.95;21.58;;;15.50;99.90;;;;;;5099300;28;20040;-60
2023/06/18 02:02:50;;;;;;;25.92;20.65;;;15.40;99.90;;;;;;5100411;28;20100;-59
2023/06/18 02:05:16;;;;;;;21.60;18.13;;;15.30;99.90;;;;;;5100516;28;20451;-60
2023/06/18 02:07:41;;;;;;;21.65;17.17;;;15.00;99.90;;;;;;5101241;28;20062;-60
2023/06/18 02:10:07;;;;;;;18.60;15.52;;;15.00;99.90;;;;;;5100441;28;20504;-60
2023/06/18 02:12:33;;;;;;;19.75;15.85;;;14.60;99.90;;;;;;5100639;28;20395;-59
2023/06/18 02:14:59;;;;;;;19.65;16.63;;;14.50;99.90;;;;;;5100561;28;20029;-59
2023/06/18 02:17:26;;;;;;;21.08;16.80;;;14.50;99.90;;;;;;5100027;28;20048;-60
2023/06/18 02:19:52;;;;;;;19.67;16.52;;;14.60;99.90;;;;;;5100251;28;20093;-60
2023/06/18 02:22:17;;;;;;;18.67;16.52;;;14.70;99.90;;;;;;5099846;28;20048;-60
2023/06/18 02:24:44;;;;;;;20.63;16.48;;;14.80;99.90;;;;;;5099441;28;20125;-59
2023/06/18 02:27:09;;;;;;;23.55;17.50;;;14.70;99.90;;;;;;5099965;28;20118;-60
2023/06/18 02:29:35;;;;;;;24.13;18.90;;;14.80;99.90;;;;;;5100387;28;20040;-59
2023/06/18 02:32:01;;;;;;;27.25;21.20;;;14.80;99.90;;;;;;5099808;28;20089;-60
2023/06/18 02:34:27;;;;;;;25.88;20.33;;;14.70;99.90;;;;;;5100085;28;20143;-60
2023/06/18 02:36:54;;;;;;;28.10;19.48;;;14.80;99.90;;;;;;5099818;28;20059;-60
2023/06/18 02:39:21;;;;;;;28.25;18.17;;;14.70;99.90;;;;;;5100041;28;20055;-60
2023/06/18 02:41:47;;;;;;;27.48;18.77;;;14.60;99.90;;;;;;5100460;28;20647;-60
2023/06/18 02:44:12;;;;;;;23.95;17.38;;;14.60;99.90;;;;;;5099808;28;20040;-60
2023/06/18 02:46:38;;;;;;;22.80;17.90;;;14.60;99.90;;;;;;5099862;28;20083;-60
2023/06/18 02:49:04;;;;;;;21.15;17.98;;;14.50;99.90;;;;;;5098301;28;20092;-60
2023/06/18 02:51:30;;;;;;;19.10;16.23;;;14.50;99.90;;;;;;5099616;28;20068;-60
2023/06/18 02:53:55;;;;;;;19.70;16.33;;;14.50;99.90;;;;;;5107064;28;20034;-60
2023/06/18 02:56:21;;;;;;;22.55;16.65;;;14.50;99.90;;;;;;5119603;28;20093;-60
2023/06/18 02:58:51;;;;;;;21.13;16.83;;;14.40;99.90;;;;;;5119727;28;20044;-60
2023/06/18 03:01:19;;;;;;;24.02;16.17;;;14.40;99.90;;;;;;5118890;28;20052;-59
2023/06/18 03:03:44;;;;;;;28.50;16.67;;;14.40;99.90;;;;;;5119476;28;20094;-60
2023/06/18 03:06:10;;;;;;;20.80;16.67;;;14.40;99.90;;;;;;5118363;28;20043;-60
2023/06/18 03:08:36;;;;;;;19.15;16.52;;;14.20;99.90;;;;;;5119365;28;20048;-60
2023/06/18 03:11:01;;;;;;;26.73;17.30;;;14.30;99.90;;;;;;5119647;28;20050;-60
2023/06/18 03:13:27;;;;;;;25.08;17.42;;;14.20;99.90;;;;;;5119883;28;20091;-60
2023/06/18 03:15:53;;;;;;;20.80;16.55;;;14.30;99.90;;;;;;5119802;28;20051;-61
2023/06/18 03:18:18;;;;;;;31.63;17.08;;;14.30;99.90;;;;;;5119099;28;20040;-60
2023/06/18 03:20:44;;;;;;;32.70;18.95;;;14.30;99.90;;;;;;5118535;28;20129;-60
2023/06/18 03:23:10;;;;;;;37.22;18.55;;;14.30;99.90;;;;;;5119248;28;20069;-61
2023/06/18 03:25:36;;;;;;;25.60;19.17;;;14.30;99.90;;;;;;5119566;28;20041;-60
2023/06/18 03:28:01;;;;;;;29.23;18.52;;;14.30;99.90;;;;;;5119187;28;20044;-60
2023/06/18 03:30:27;;;;;;;28.27;19.15;;;14.40;99.90;;;;;;5119299;28;20118;-60
2023/06/18 03:32:56;;;;;;;24.75;18.52;;;14.40;99.90;;;;;;5119343;28;20044;-60
2023/06/18 03:35:21;;;;;;;24.63;17.83;;;14.50;99.90;;;;;;5118766;27;20061;-62
2023/06/18 03:37:47;;;;;;;28.38;18.30;;;14.50;99.90;;;;;;5119514;28;20032;-60
2023/06/18 03:40:13;;;;;;;28.10;18.58;;;14.50;99.90;;;;;;5119351;27;20127;-60
2023/06/18 03:42:38;;;;;;;23.73;18.52;;;14.50;99.90;;;;;;5118970;28;20060;-60
2023/06/18 03:45:05;;;;;;;23.65;18.95;;;14.60;99.90;;;;;;5117856;28;20094;-62
2023/06/18 03:47:31;;;;;;;28.67;17.65;;;14.50;99.90;;;;;;5117920;28;20039;-60
2023/06/18 03:49:57;;;;;;;28.02;19.55;;;14.60;99.90;;;;;;5117629;28;20448;-60
2023/06/18 03:52:22;;;;;;;23.58;18.48;;;14.60;99.90;;;;;;5117584;28;20047;-60
2023/06/18 03:54:48;;;;;;;26.13;18.52;;;14.70;99.90;;;;;;5119533;28;20061;-59
2023/06/18 03:57:14;;;;;;;25.65;19.42;;;14.70;99.90;;;;;;5118725;28;20069;-60
2023/06/18 03:59:39;;;;;;;28.77;20.23;;;14.70;99.90;;;;;;5118871;28;20054;-60
2023/06/18 04:02:05;;;;;;;28.60;19.90;;;14.80;99.90;;;;;;5116856;28;20048;-60
2023/06/18 04:04:31;;;;;;;35.25;20.13;;;14.80;99.90;;;;;;5118752;28;20839;-60
2023/06/18 04:06:56;;;;;;;26.85;20.08;;;14.80;99.90;;;;;;5118476;28;20040;-60
2023/06/18 04:09:22;;;;;;;35.53;21.20;;;14.80;99.90;;;;;;5118648;28;20043;-60
2023/06/18 04:11:48;;;;;;;27.10;21.38;;;14.80;99.90;;;;;;5117815;28;20491;-61
2023/06/18 04:14:14;;;;;;;29.17;20.85;;;15.00;99.90;;;;;;5118373;28;20067;-60
2023/06/18 04:16:40;;;;;;;28.95;19.90;;;15.00;99.90;;;;;;5118764;28;20051;-60
2023/06/18 04:19:05;;;;;;;30.65;20.73;;;15.00;99.90;;;;;;5118587;28;20039;-60
2023/06/18 04:21:31;;;;;;;29.13;20.13;;;15.00;99.90;;;;;;5118400;28;20082;-61
2023/06/18 04:23:57;;;;;;;27.65;19.60;;;15.10;99.90;;;;;;5118441;28;20094;-60
2023/06/18 04:26:23;;;;;;;25.10;19.20;;;15.20;99.90;;;;;;5118545;28;20036;-59
2023/06/18 04:28:50;;;;;;;25.38;18.88;;;15.20;99.90;;;;;;5118467;28;20075;-60
2023/06/18 04:31:16;;;;;;;31.60;18.83;;;15.20;99.90;;;;;;5118214;28;20053;-60
2023/06/18 04:33:42;;;;;;;25.92;18.65;;;15.30;99.90;;;;;;5118593;28;20099;-60
2023/06/18 04:36:08;;;;;;;28.00;19.27;;;15.40;99.90;;;;;;5117649;28;20784;-60
2023/06/18 04:38:35;;;;;;;25.92;18.17;;;15.40;99.90;;;;;;5118116;28;20491;-60
2023/06/18 04:41:01;;;;;;;32.92;19.08;;;15.50;99.90;;;;;;5118001;28;20039;-60
2023/06/18 04:43:26;;;;;;;23.80;17.75;;;15.50;99.90;;;;;;5118239;28;20054;-59
2023/06/18 04:45:52;;;;;;;26.23;17.98;;;15.50;99.90;;;;;;5117959;28;20039;-59
2023/06/18 04:48:18;;;;;;;28.13;17.55;;;15.60;99.90;;;;;;5118556;28;20036;-60
2023/06/18 04:50:44;;;;;;;24.25;17.35;;;15.60;99.90;;;;;;5122610;28;20081;-60
2023/06/18 04:53:10;;;;;;;30.88;18.65;;;15.70;99.90;;;;;;5122444;28;20027;-60
2023/06/18 04:55:37;;;;;;;27.63;18.95;;;15.70;99.90;;;;;;5122375;28;20082;-60
2023/06/18 04:58:04;;;;;;;26.17;18.75;;;15.70;99.90;;;;;;5122240;28;20072;-60
2023/06/18 05:00:31;;;;;;;25.65;18.13;;;15.70;99.90;;;;;;5122619;28;20036;-60
2023/06/18 05:03:00;;;;;;;31.85;19.27;;;15.80;99.90;;;;;;5112324;28;20590;-60
2023/06/18 05:05:27;;;;;;;28.45;20.00;;;15.80;99.90;;;;;;5118708;28;20035;-59
2023/06/18 05:07:53;;;;;;;28.85;20.95;;;15.80;99.90;;;;;;5105998;28;20032;-59
2023/06/18 05:10:20;;;;;;;27.35;18.77;;;15.90;99.90;;;;;;5101497;28;20044;-60
2023/06/18 05:12:45;;;;;;;25.42;18.38;;;15.90;99.90;;;;;;5101405;28;20072;-59
2023/06/18 05:15:11;;;;;;;26.73;19.83;;;15.90;99.90;;;;;;5101474;28;20040;-60
2023/06/18 05:17:36;;;;;;;29.80;20.25;;;16.00;99.90;;;;;;5101584;28;20051;-60
2023/06/18 05:20:06;;;;;;;30.90;20.42;;;16.00;99.90;;;;;;5101772;28;20063;-58
2023/06/18 05:22:33;;;;;;;30.38;21.88;;;16.10;99.90;;;;;;5100944;28;20082;-58
2023/06/18 05:25:04;;;;;;;27.60;19.63;;;16.10;99.90;;;;;;5113286;28;20112;-60
2023/06/18 05:27:30;;;;;;;28.95;20.85;;;16.20;99.90;;;;;;5121568;28;20039;-60
2023/06/18 05:29:55;;;;;;;30.17;21.40;;;16.20;99.90;;;;;;5120279;28;21317;-60
2023/06/18 05:32:21;;;;;;;27.30;19.88;;;16.30;99.90;;;;;;5121306;28;20117;-60
2023/06/18 05:34:47;;;;;;;27.40;20.90;;;16.30;99.90;;;;;;5121866;28;20075;-60
2023/06/18 05:37:13;;;;;;;29.25;21.55;;;16.40;99.90;;;;;;5120406;28;20726;-60
2023/06/18 05:39:39;;;;;;;30.90;21.25;;;16.40;99.90;;;;;;5121344;28;20082;-60
2023/06/18 05:42:06;;;;;;;33.33;22.85;;;16.50;99.90;;;;;;5122028;28;20043;-60
2023/06/18 05:44:31;;;;;;;28.20;19.33;;;16.60;99.90;;;;;;5121533;28;20059;-59
2023/06/18 05:46:57;;;;;;;29.48;21.42;;;16.60;99.90;;;;;;5120753;28;20043;-59
2023/06/18 05:49:23;;;;;;;32.63;21.85;;;16.60;99.90;;;;;;5120910;28;20105;-59
2023/06/18 05:51:48;;;;;;;31.70;22.35;;;16.60;99.90;;;;;;5120452;28;20055;-60
2023/06/18 05:54:14;;;;;;;30.33;21.20;;;16.70;99.90;;;;;;5120899;27;20036;-60
2023/06/18 05:56:40;;;;;;;32.10;22.05;;;16.80;99.90;;;;;;5121043;28;20588;-57
2023/06/18 05:59:05;;;;;;;30.05;20.55;;;16.90;99.90;;;;;;5121199;28;20039;-60
2023/06/18 06:01:33;;;;;;;30.98;21.17;;;17.00;99.90;;;;;;5121058;28;20039;-59
2023/06/18 06:04:00;;;;;;;32.53;22.70;;;17.10;99.90;;;;;;5120802;28;20102;-60
2023/06/18 06:06:26;;;;;;;32.88;23.50;;;17.10;99.90;;;;;;5120880;28;20067;-60
2023/06/18 06:08:52;;;;;;;31.23;22.60;;;17.30;99.90;;;;;;5119512;28;20059;-60
2023/06/18 06:11:18;;;;;;;28.83;21.20;;;17.50;99.90;;;;;;5119329;28;20083;-60
2023/06/18 06:13:44;;;;;;;29.77;20.70;;;17.50;99.90;;;;;;5120657;28;20035;-60
2023/06/18 06:16:10;;;;;;;30.58;20.75;;;17.70;99.90;;;;;;5121464;28;20044;-60
2023/06/18 06:18:36;;;;;;;29.70;20.90;;;17.70;99.90;;;;;;5120770;28;20121;-60
2023/06/18 06:21:02;;;;;;;28.63;20.25;;;17.90;99.90;;;;;;5120729;28;20039;-60
2023/06/18 06:23:28;;;;;;;30.05;22.02;;;18.00;99.90;;;;;;5120595;28;20039;-60
2023/06/18 06:25:53;;;;;;;31.27;20.73;;;18.00;99.90;;;;;;5120729;28;20052;-59
2023/06/18 06:28:19;;;;;;;28.13;20.73;;;18.10;99.90;;;;;;5120336;28;20111;-58
2023/06/18 06:30:46;;;;;;;26.83;20.20;;;18.30;99.90;;;;;;5120500;28;20035;-59
2023/06/18 06:33:12;;;;;;;27.30;19.95;;;18.40;99.90;;;;;;5120994;28;20039;-59
2023/06/18 06:35:37;;;;;;;27.55;20.25;;;18.60;99.90;;;;;;5120098;28;20482;-59
2023/06/18 06:38:03;;;;;;;26.65;19.10;;;18.70;99.90;;;;;;5115952;28;20039;-59
2023/06/18 06:40:29;;;;;;;25.92;18.63;;;18.70;99.90;;;;;;5116477;28;20054;-59
2023/06/18 06:42:55;;;;;;;25.65;18.98;;;18.80;99.90;;;;;;5116569;28;20047;-57
2023/06/18 06:45:20;;;;;;;25.35;18.52;;;18.90;99.90;;;;;;5116583;28;20149;-59
2023/06/18 06:47:47;;;;;;;25.80;18.90;;;19.00;99.90;;;;;;5116797;28;20101;-59
2023/06/18 06:50:12;;;;;;;24.70;17.90;;;19.10;99.90;;;;;;5116503;28;20099;-59
2023/06/18 06:52:38;;;;;;;24.95;18.30;;;19.20;99.90;;;;;;5115912;28;20090;-59
2023/06/18 06:55:04;;;;;;;24.80;18.58;;;19.30;99.90;;;;;;5116815;28;20151;-59
2023/06/18 06:57:30;;;;;;;23.08;16.83;;;19.30;99.90;;;;;;5116853;28;20043;-59
2023/06/18 06:59:56;;;;;;;26.15;18.35;;;19.40;99.90;;;;;;5116258;28;20085;-59
2023/06/18 07:02:21;;;;;;;23.83;18.52;;;19.40;99.90;;;;;;5102341;28;20079;-59
2023/06/18 07:04:48;;;;;;;24.80;17.23;;;19.40;99.90;;;;;;5108207;28;20039;-59
2023/06/18 07:07:17;;;;;;;21.83;17.27;;;19.60;99.90;;;;;;5106838;28;20130;-59
2023/06/18 07:09:43;;;;;;;22.15;16.35;;;19.70;99.90;;;;;;5107533;28;20054;-60
2023/06/18 07:12:09;;;;;;;21.85;15.90;;;19.80;99.90;;;;;;5110227;28;20036;-60
2023/06/18 07:14:35;;;;;;;20.90;16.27;;;19.80;99.90;;;;;;5111495;28;20128;-59
2023/06/18 07:17:01;;;;;;;21.17;16.60;;;19.90;99.90;;;;;;5111907;28;20057;-59
2023/06/18 07:19:27;;;;;;;22.13;16.88;;;19.90;99.90;;;;;;5112736;27;20464;-59
2023/06/18 07:21:53;;;;;;;22.65;16.58;;;20.00;99.90;;;;;;5091828;28;20047;-59
2023/06/18 07:24:20;;;;;;;21.35;15.07;;;19.90;99.90;;;;;;5112719;28;20090;-58
2023/06/18 07:26:46;;;;;;;20.55;15.70;;;20.10;99.90;;;;;;5114475;28;20038;-59
2023/06/18 07:29:12;;;;;;;21.08;15.73;;;20.30;99.90;;;;;;5108673;28;20097;-58
2023/06/18 07:31:38;;;;;;;19.58;15.68;;;20.40;99.90;;;;;;5113437;28;20056;-59
2023/06/18 07:34:04;;;;;;;19.23;15.10;;;20.60;99.90;;;;;;5104248;28;20043;-58
2023/06/18 07:36:29;;;;;;;19.45;14.45;;;20.70;99.90;;;;;;5106039;28;20036;-58
2023/06/18 07:38:56;;;;;;;20.58;15.20;;;20.90;99.90;;;;;;5095634;28;20036;-58
2023/06/18 07:41:22;;;;;;;18.45;15.27;;;21.00;99.90;;;;;;5106555;28;20051;-58
2023/06/18 07:43:48;;;;;;;17.65;13.82;;;21.10;99.90;;;;;;5099468;28;20104;-58
2023/06/18 07:46:14;;;;;;;17.77;13.48;;;21.30;99.90;;;;;;5106261;28;20031;-57
2023/06/18 07:48:39;;;;;;;18.45;13.55;;;21.40;99.90;;;;;;5114381;28;20043;-58
2023/06/18 07:51:05;;;;;;;16.48;12.82;;;21.50;99.90;;;;;;5108658;28;20050;-58
2023/06/18 07:53:32;;;;;;;19.15;12.98;;;21.60;99.90;;;;;;5095487;28;20123;-58
2023/06/18 07:55:59;;;;;;;18.73;13.13;;;21.70;99.90;;;;;;5115446;28;20066;-58
2023/06/18 07:58:24;;;;;;;16.67;12.25;;;21.80;99.90;;;;;;5115609;28;20051;-57
2023/06/18 08:00:50;;;;;;;16.55;12.18;;;21.80;99.90;;;;;;5114832;28;20040;-57
2023/06/18 08:03:16;;;;;;;15.75;11.88;;;21.90;99.90;;;;;;5115438;28;20086;-58
2023/06/18 08:05:41;;;;;;;15.15;12.23;;;22.00;99.90;;;;;;5115385;28;20083;-58
2023/06/18 08:08:07;;;;;;;16.92;12.38;;;22.10;99.90;;;;;;5115607;28;20073;-58
2023/06/18 08:10:33;;;;;;;15.75;12.52;;;22.30;99.90;;;;;;5115289;28;20099;-58
2023/06/18 08:12:58;;;;;;;18.00;11.77;;;22.30;99.90;;;;;;5109468;28;20047;-58
2023/06/18 08:15:24;;;;;;;14.85;11.13;;;22.60;99.90;;;;;;5097669;28;20051;-57
2023/06/18 08:17:51;;;;;;;16.85;12.27;;;22.70;99.90;;;;;;5094293;28;20102;-57
2023/06/18 08:20:17;;;;;;;14.82;11.50;;;22.80;99.90;;;;;;5102228;28;20063;-58
2023/06/18 08:22:43;;;;;;;14.77;10.32;;;22.90;99.90;;;;;;5100831;28;20040;-58
2023/06/18 08:25:08;;;;;;;15.25;10.90;;;23.00;99.90;;;;;;5105141;28;20059;-58
2023/06/18 08:27:35;;;;;;;16.08;11.07;;;23.00;99.90;;;;;;5100657;28;20093;-58
2023/06/18 08:30:01;;;;;;;14.88;10.13;;;23.00;99.90;;;;;;5102808;28;20122;-58
2023/06/18 08:32:26;;;;;;;16.75;10.98;;;23.00;99.90;;;;;;5102180;28;20161;-58
2023/06/18 08:34:52;;;;;;;14.65;9.98;;;23.20;99.90;;;;;;5107738;28;20078;-58
2023/06/18 08:37:18;;;;;;;14.27;10.20;;;23.50;99.90;;;;;;5094684;28;20058;-58
2023/06/18 08:39:44;;;;;;;13.40;9.75;;;23.60;99.90;;;;;;5105559;28;20115;-58
2023/06/18 08:42:13;;;;;;;12.40;8.70;;;23.70;99.90;;;;;;5112084;28;20854;-58
2023/06/18 08:44:38;;;;;;;12.35;9.05;;;23.70;99.90;;;;;;5113822;28;20047;-58
2023/06/18 08:47:04;;;;;;;12.32;9.35;;;23.80;99.90;;;;;;5113436;28;20077;-58
2023/06/18 08:49:32;;;;;;;14.13;10.32;;;24.00;99.90;;;;;;5113391;28;20047;-58
2023/06/18 08:52:00;;;;;;;14.43;10.75;;;24.20;99.90;;;;;;5113657;28;20365;-58
2023/06/18 08:54:37;;;;;;;12.88;9.05;;;24.20;99.90;;;;;;5114163;28;20093;-58
2023/06/18 08:57:16;;;;;;;13.48;9.13;;;24.20;99.90;;;;;;5112371;28;20070;-58
2023/06/18 08:59:43;;;;;;;13.30;9.48;;;24.10;99.90;;;;;;5117975;28;20630;-58
2023/06/18 09:02:12;;;;;;;11.82;9.13;;;24.00;99.90;;;;;;5111117;27;20059;-58
2023/06/18 09:04:39;;;;;;;12.27;9.65;;;24.00;99.90;;;;;;5110955;28;20069;-58
2023/06/18 09:07:06;;;;;;;14.70;9.52;;;24.00;99.90;;;;;;5113904;28;20044;-58
2023/06/18 09:09:32;;;;;;;12.02;9.05;;;23.90;99.90;;;;;;5114029;28;20044;-58
2023/06/18 09:11:58;;;;;;;12.23;9.05;;;23.80;99.90;;;;;;5114398;28;20047;-58
2023/06/18 09:14:24;;;;;;;12.68;9.40;;;23.80;99.90;;;;;;5114481;28;20036;-58
2023/06/18 09:16:52;;;;;;;12.77;8.57;;;23.80;99.90;;;;;;5113736;28;20047;-58
2023/06/18 09:19:19;;;;;;;12.88;8.73;;;24.00;99.90;;;;;;5111647;28;20051;-58
2023/06/18 09:21:45;;;;;;;14.07;10.10;;;24.20;99.90;;;;;;5117170;28;20054;-58
2023/06/18 09:24:21;;;;;;;11.50;8.95;;;24.30;99.90;;;;;;5113985;28;20058;-59
2023/06/18 09:27:07;;;;;;;12.77;8.52;;;24.40;99.90;;;;;;5114252;28;20055;-58
2023/06/18 09:29:33;;;;;;;12.00;8.38;;;24.60;99.90;;;;;;5114371;28;20086;-58
2023/06/18 09:32:12;;;;;;;10.80;8.32;;;24.70;99.90;;;;;;5114208;28;20048;-59
2023/06/18 09:34:39;;;;;;;12.95;8.27;;;24.80;99.90;;;;;;5117054;28;20036;-58
2023/06/18 09:37:06;;;;;;;10.95;8.05;;;24.90;99.90;;;;;;5117927;27;20043;-58
2023/06/18 09:39:33;;;;;;;14.20;8.38;;;24.90;99.90;;;;;;5116634;28;20043;-59
2023/06/18 09:42:13;;;;;;;11.38;8.57;;;25.00;99.90;;;;;;5117169;28;20043;-58
2023/06/18 09:44:44;;;;;;;11.07;8.07;;;25.00;99.90;;;;;;5118068;28;20062;-59
2023/06/18 09:47:12;;;;;;;13.90;7.97;;;25.00;99.90;;;;;;5118061;27;20516;-58
2023/06/18 09:49:39;;;;;;;11.45;7.90;;;25.20;99.90;;;;;;5117324;28;20507;-59
2023/06/18 09:52:07;;;;;;;11.10;6.85;;;25.10;99.90;;;;;;5117663;28;20051;-62
2023/06/18 09:54:43;;;;;;;10.90;8.27;;;25.20;99.90;;;;;;5118494;28;20110;-58
2023/06/18 09:57:11;;;;;;;9.52;6.85;;;25.20;99.90;;;;;;5117689;28;20079;-59
2023/06/18 09:59:37;;;;;;;10.35;6.63;;;25.30;99.90;;;;;;5117789;28;20048;-58
2023/06/18 10:02:04;;;;;;;9.05;6.03;;;25.20;99.50;;;;;;5116210;28;20058;-58
2023/06/18 10:04:32;;;;;;;8.57;6.00;;;25.40;99.10;;;;;;5115996;28;20093;-58
2023/06/18 10:07:01;;;;;;;9.45;5.80;;;25.40;98.90;;;;;;5117258;28;20050;-59
2023/06/18 10:09:33;;;;;;;10.52;6.03;;;25.60;98.30;;;;;;5114189;28;20063;-58
2023/06/18 10:12:01;;;;;;;9.52;5.82;;;25.60;96.80;;;;;;5117075;28;20047;-58
2023/06/18 10:14:28;;;;;;;10.38;6.13;;;25.80;96.70;;;;;;5117125;28;20067;-58
2023/06/18 10:17:10;;;;;;;9.15;5.85;;;26.00;96.40;;;;;;5117457;28;20547;-58
2023/06/18 10:20:08;;;;;;;8.70;5.50;;;25.90;95.10;;;;;;5116011;28;20043;-58
2023/06/18 10:23:02;;;;;;;8.50;5.53;;;26.20;92.90;;;;;;5111873;28;20065;-58
2023/06/18 10:25:30;;;;;;;9.57;5.75;;;26.40;92.80;;;;;;5115977;28;20804;-59
2023/06/18 10:27:56;;;;;;;8.73;5.65;;;26.30;92.50;;;;;;5117331;27;20047;-59
2023/06/18 10:30:22;;;;;;;9.82;5.35;;;26.40;93.60;;;;;;5117440;28;20043;-59
2023/06/18 10:32:50;;;;;;;9.18;6.15;;;26.50;92.20;;;;;;5117251;28;20071;-59
2023/06/18 10:35:17;;;;;;;8.05;5.57;;;26.70;91.10;;;;;;5116684;28;20062;-58
2023/06/18 10:37:44;;;;;;;8.70;5.85;;;26.80;91.30;;;;;;5116927;28;20495;-58
2023/06/18 10:40:11;;;;;;;8.20;5.45;;;27.00;89.30;;;;;;5116941;28;20449;-58
2023/06/18 10:42:37;;;;;;;8.98;5.78;;;26.90;87.10;;;;;;5116785;28;20071;-59
2023/06/18 10:45:13;;;;;;;9.18;5.50;;;27.00;87.60;;;;;;5115704;28;20399;-58
2023/06/18 10:47:40;;;;;;;9.15;5.53;;;27.00;87.00;;;;;;5116858;28;20104;-59
2023/06/18 10:50:10;;;;;;;8.60;6.20;;;27.00;88.20;;;;;;5116836;28;20051;-59
2023/06/18 10:52:37;;;;;;;9.73;6.10;;;27.10;88.50;;;;;;5116766;28;20084;-59
2023/06/18 10:55:18;;;;;;;8.93;6.25;;;27.30;89.90;;;;;;5117215;28;20039;-58
2023/06/18 10:57:55;;;;;;;9.30;6.83;;;27.20;89.80;;;;;;5116916;28;20862;-59
2023/06/18 11:00:31;;;;;;;9.93;6.30;;;27.10;88.90;;;;;;5114697;28;20043;-57
2023/06/18 11:03:04;;;;;;;11.43;7.65;;;27.30;90.30;;;;;;5116785;28;20039;-59
2023/06/18 11:05:36;;;;;;;9.20;6.65;;;27.30;89.90;;;;;;5115874;28;20040;-59
2023/06/18 11:08:05;;;;;;;;;;;27.50;89.40;;;;;;5116884;28;20044;-59
2023/06/18 11:10:35;;;;;;;10.98;7.38;;;27.30;89.00;;;;;;5116012;28;19923;-59
2023/06/18 11:13:08;;;;;;;10.80;8.02;;;27.10;90.30;;;;;;5115642;28;20071;-59
2023/06/18 11:15:35;;;;;;;9.88;6.68;;;27.30;90.20;;;;;;5112141;28;20051;-59
2023/06/18 11:18:02;;;;;;;9.60;7.05;;;27.30;90.60;;;;;;5115721;28;20055;-59
2023/06/18 11:20:34;;;;;;;9.40;6.80;;;27.20;90.20;;;;;;5116281;28;20040;-58
2023/06/18 11:23:00;;;;;;;9.63;7.30;;;27.40;90.10;;;;;;5115915;28;20079;-58
2023/06/18 11:25:28;;;;;;;11.40;6.93;;;27.50;91.10;;;;;;5115687;28;20047;-58
2023/06/18 11:27:55;;;;;;;9.80;7.57;;;27.60;90.30;;;;;;5115920;28;20039;-58
2023/06/18 11:30:21;;;;;;;10.45;7.78;;;27.60;90.20;;;;;;5116064;28;20047;-57
2023/06/18 11:32:47;;;;;;;10.48;7.25;;;27.60;89.80;;;;;;5115442;28;20141;-57
2023/06/18 11:35:14;;;;;;;9.75;7.60;;;27.60;90.40;;;;;;5115798;28;20094;-58
2023/06/18 11:37:42;;;;;;;10.63;7.35;;;27.50;90.40;;;;;;5115561;28;20062;-58
2023/06/18 11:40:09;;;;;;;9.50;7.28;;;27.60;89.60;;;;;;5115377;28;20036;-58
2023/06/18 11:42:45;;;;;;;9.77;6.82;;;27.70;89.10;;;;;;5115409;28;20529;-58
2023/06/18 11:45:11;;;;;;;9.45;6.78;;;27.80;88.00;;;;;;5114356;28;20047;-58
2023/06/18 11:47:37;;;;;;;9.02;6.53;;;27.70;87.90;;;;;;5115134;28;20046;-58
2023/06/18 11:50:03;;;;;;;10.13;7.03;;;28.00;88.50;;;;;;5104728;28;20043;-58
2023/06/18 11:52:30;;;;;;;10.57;6.70;;;28.10;88.30;;;;;;5105422;28;20064;-58
2023/06/18 11:55:03;;;;;;;10.13;7.10;;;28.20;88.40;;;;;;5103101;28;20039;-58
2023/06/18 11:57:30;;;;;;;8.93;6.47;;;28.10;84.90;;;;;;5106331;28;20570;-59
2023/06/18 11:59:55;;;;;;;9.60;7.32;;;28.00;87.70;;;;;;5111373;28;20130;-58
2023/06/18 12:02:23;;;;;;;10.40;7.22;;;27.90;88.10;;;;;;5114097;28;20078;-58
2023/06/18 12:04:50;;;;;;;11.65;7.40;;;27.90;87.40;;;;;;5114728;28;20042;-58
2023/06/18 12:07:25;;;;;;;9.18;6.95;;;27.90;88.30;;;;;;5114221;28;20051;-58
2023/06/18 12:09:53;;;;;;;9.90;6.88;;;27.80;85.80;;;;;;5113872;28;20117;-57
2023/06/18 12:12:30;;;;;;;10.32;7.28;;;27.80;88.10;;;;;;5114955;28;20409;-58
2023/06/18 12:15:17;;;;;;;10.85;7.35;;;27.80;87.00;;;;;;5114981;28;20613;-58
2023/06/18 12:18:33;;;;;;;10.82;8.02;;;27.80;86.80;;;;;;5114382;28;20077;-59
2023/06/18 12:21:00;;;;;;;12.10;7.30;;;27.80;87.00;;;;;;5074706;28;20048;-58
2023/06/18 12:23:27;;;;;;;9.40;7.15;;;27.90;88.40;;;;;;5091393;28;20074;-58
2023/06/18 12:25:53;;;;;;;10.88;7.90;;;27.70;87.30;;;;;;5083228;28;20052;-58
2023/06/18 12:28:23;;;;;;;10.55;6.97;;;27.80;88.10;;;;;;5074195;28;20860;-58
2023/06/18 12:30:52;;;;;;;10.27;7.32;;;27.90;86.60;;;;;;5071245;28;20049;-58
2023/06/18 12:33:18;;;;;;;11.85;7.78;;;28.00;88.00;;;;;;5066790;28;20108;-58
2023/06/18 12:35:50;;;;;;;10.07;7.00;;;28.00;88.20;;;;;;5059838;28;20400;-58